Comendador Levy Gasparian, Brazil
Current Conditions -  °F | °C
As of 12:00 AM on Sunday 23 Nov 2014 (Local Time) from SBGL Reporting Station
Broken Clouds Broken Clouds  
Wind Chill: 77°   Ceiling: 10000
Heat Index: 79°   Visibility: 6mi
Dew Point: 70°   Wind: 3mph
Humidity: 78%   Direction: 290°WNW
Pressure: 29.85"   Gusts: NA
Location:  22.03°S, 43.2°W
Report Text: SBGL 230200Z 29003KT 9999 SCT020 BKN100 25/21 Q1011
Loading
Personal Weather Stations






























Interactive Weather Map New forecast layout! Learn more

10-Day Weather Forecast

Advertisements
Track Severe Weather on mobile